Time;durP1;ratioP1;P1;durP2;ratioP2;P2;SDS_P1;SDS_P2;PMS_P1;PMS_P2;Temp;Humidity;BMP_temperature;BMP_pressure;BME280_temperature;BME280_humidity;BME280_pressure;Samples;Min_cycle;Max_cycle;Signal;HPM_P1;HPM_P2
2022/06/23 00:01:55;;;;;;;3.97;3.20;;;;;;;15.69;100.00;100402.72;6139472;28;20051;-88
2022/06/23 00:05:00;;;;;;;3.80;3.10;;;;;;;15.65;100.00;100411.81;6134378;28;21185;-88
2022/06/23 00:08:05;;;;;;;4.75;3.28;;;;;;;15.61;100.00;100412.28;6136538;28;20062;-88
2022/06/23 00:11:20;;;;;;;4.80;3.40;;;;;;;15.53;100.00;100415.69;6137503;29;20062;-88
2022/06/23 00:14:24;;;;;;;6.32;3.80;;;;;;;15.47;100.00;100421.50;6132701;29;20638;-88
2022/06/23 00:17:30;;;;;;;6.15;3.30;;;;;;;15.41;100.00;100417.75;6136768;28;20078;-88
2022/06/23 00:20:43;;;;;;;5.75;3.38;;;;;;;15.32;100.00;100415.25;6137138;28;20449;-88
2022/06/23 00:23:50;;;;;;;5.43;3.28;;;;;;;15.23;100.00;100419.59;6136723;29;20075;-88
2022/06/23 00:26:53;;;;;;;6.75;3.33;;;;;;;15.17;100.00;100418.41;6138087;28;20054;-87
2022/06/23 00:30:00;;;;;;;5.85;3.33;;;;;;;15.11;100.00;100419.03;6135191;29;20059;-87
2022/06/23 00:33:20;;;;;;;4.75;3.50;;;;;;;15.06;100.00;100416.88;6125920;29;20055;-87
2022/06/23 00:36:28;;;;;;;5.35;3.50;;;;;;;15.07;100.00;100415.09;6137593;29;20449;-87
2022/06/23 00:39:35;;;;;;;4.93;3.25;;;;;;;15.06;100.00;100408.25;6136193;29;20501;-88
2022/06/23 00:42:40;;;;;;;3.80;3.40;;;;;;;15.09;100.00;100400.13;6130080;28;20424;-88
2022/06/23 00:45:52;;;;;;;3.75;3.25;;;;;;;15.08;100.00;100404.53;6138197;28;20651;-88
2022/06/23 00:49:02;;;;;;;4.93;3.40;;;;;;;15.12;100.00;100410.22;6137905;28;20137;-88
2022/06/23 00:52:28;;;;;;;3.63;3.33;;;;;;;15.13;100.00;100411.03;6140650;28;20396;-88
2022/06/23 00:55:42;;;;;;;4.90;3.67;;;;;;;15.11;100.00;100411.22;6131584;29;20050;-88
2022/06/23 00:59:09;;;;;;;8.13;3.33;;;;;;;15.03;100.00;100414.59;6131330;29;20047;-88
2022/06/23 01:02:39;;;;;;;5.40;3.53;;;;;;;14.96;100.00;100424.00;6135045;28;20051;-88
2022/06/23 01:05:55;;;;;;;6.95;3.90;;;;;;;14.86;100.00;100418.88;6124114;29;20060;-87
2022/06/23 01:09:02;;;;;;;5.80;4.13;;;;;;;14.82;100.00;100421.94;6135619;29;20418;-87
2022/06/23 01:12:19;;;;;;;5.70;4.05;;;;;;;14.76;100.00;100425.97;6132469;29;20425;-88
2022/06/23 01:15:48;;;;;;;5.05;3.80;;;;;;;14.67;100.00;100426.84;6137917;28;20359;-88
2022/06/23 01:19:28;;;;;;;5.53;3.70;;;;;;;14.64;100.00;100427.97;6140968;28;20055;-88
2022/06/23 01:22:42;;;;;;;6.55;3.33;;;;;;;14.58;100.00;100425.97;6139885;29;20071;-88
2022/06/23 01:26:10;;;;;;;4.75;3.95;;;;;;;14.61;100.00;100427.47;6121104;29;20052;-88
2022/06/23 01:29:15;;;;;;;4.50;3.78;;;;;;;14.60;100.00;100429.22;6137303;29;20074;-88
2022/06/23 01:32:19;;;;;;;7.57;4.03;;;;;;;14.62;100.00;100429.91;6133099;28;20054;-88
2022/06/23 01:35:38;;;;;;;5.70;3.88;;;;;;;14.67;100.00;100424.25;6134983;28;21402;-88
2022/06/23 01:39:02;;;;;;;4.50;3.33;;;;;;;14.67;100.00;100424.25;6131586;29;20040;-88
2022/06/23 01:42:16;;;;;;;4.20;3.80;;;;;;;14.63;100.00;100433.31;6134378;29;20126;-88
2022/06/23 01:45:33;;;;;;;6.68;3.40;;;;;;;14.57;100.00;100432.13;6138504;28;20563;-88
2022/06/23 01:48:53;;;;;;;5.15;3.65;;;;;;;14.52;100.00;100430.94;6129739;29;20156;-88
2022/06/23 01:52:08;;;;;;;4.95;3.70;;;;;;;14.49;100.00;100415.59;6138931;29;20186;-88
2022/06/23 01:55:22;;;;;;;4.55;3.72;;;;;;;14.47;100.00;100418.34;6126929;28;20764;-88
2022/06/23 01:58:29;;;;;;;4.60;4.20;;;;;;;14.53;100.00;100417.75;6138218;28;20040;-88
2022/06/23 02:01:36;;;;;;;5.18;4.15;;;;;;;14.56;100.00;100409.69;6138239;28;20907;-88
2022/06/23 02:05:13;;;;;;;7.28;4.50;;;;;;;14.57;100.00;100413.91;6134070;28;20136;-88
2022/06/23 02:08:37;;;;;;;5.72;4.10;;;;;;;14.51;100.00;100411.03;6120118;29;20043;-88
2022/06/23 02:11:48;;;;;;;4.70;3.97;;;;;;;14.44;100.00;100418.66;6128313;29;20067;-88
2022/06/23 02:15:23;;;;;;;4.80;4.13;;;;;;;14.38;100.00;100427.03;6127300;29;20056;-88
2022/06/23 02:18:36;;;;;;;4.70;4.22;;;;;;;14.34;100.00;100421.31;6150077;28;20488;-88
2022/06/23 02:21:49;;;;;;;6.88;4.40;;;;;;;14.27;100.00;100420.28;6136899;28;20039;-88
2022/06/23 02:25:26;;;;;;;6.05;4.25;;;;;;;14.15;100.00;100424.88;6134985;28;20100;-88
2022/06/23 02:28:47;;;;;;;5.68;4.75;;;;;;;14.04;100.00;100424.28;6094892;29;20059;-88
2022/06/23 02:31:55;;;;;;;5.95;4.18;;;;;;;13.96;100.00;100412.81;6101715;29;20056;-88
2022/06/23 02:35:30;;;;;;;9.00;4.85;;;;;;;13.93;100.00;100410.47;6109721;29;20062;-88
2022/06/23 02:39:15;;;;;;;5.50;4.30;;;;;;;13.85;100.00;100423.41;6109115;29;20066;-88
2022/06/23 02:42:44;;;;;;;5.10;4.35;;;;;;;13.82;100.00;100417.69;5994750;29;20126;-88
2022/06/23 02:46:13;;;;;;;8.13;4.15;;;;;;;13.78;100.00;100422.34;5988467;29;20050;-88
2022/06/23 02:49:41;;;;;;;5.03;4.07;;;;;;;13.74;100.00;100421.00;5994274;29;20061;-88
2022/06/23 02:53:03;;;;;;;5.75;4.40;;;;;;;13.68;100.00;100417.19;5991018;29;20065;-88
2022/06/23 02:56:46;;;;;;;7.50;4.43;;;;;;;13.67;100.00;100420.75;5995844;29;20499;-88
2022/06/23 03:00:07;;;;;;;7.78;4.65;;;;;;;13.66;100.00;100421.69;5989732;29;20057;-88
2022/06/23 03:03:09;;;;;;;;;;;;;;;13.66;100.00;100413.91;5995176;29;20058;-88
2022/06/23 03:06:23;;;;;;;8.40;5.05;;;;;;;13.67;100.00;100410.34;6029274;29;19928;-88
2022/06/23 03:10:00;;;;;;;5.60;4.68;;;;;;;13.70;100.00;100410.06;6026590;29;20045;-88
2022/06/23 03:13:12;;;;;;;6.90;4.65;;;;;;;13.72;100.00;100404.72;6033894;29;20045;-88
2022/06/23 03:16:24;;;;;;;6.95;4.65;;;;;;;13.75;100.00;100401.81;6102485;28;20588;-88
2022/06/23 03:19:34;;;;;;;6.72;4.95;;;;;;;13.78;100.00;100414.53;6129886;29;20077;-88
2022/06/23 03:22:48;;;;;;;6.40;4.70;;;;;;;13.79;100.00;100408.38;6134411;28;20387;-88
2022/06/23 03:26:07;;;;;;;8.50;5.00;;;;;;;13.74;100.00;100403.59;6136406;28;20043;-87
2022/06/23 03:29:22;;;;;;;6.50;4.95;;;;;;;13.76;100.00;100409.50;6125325;28;20039;-87
2022/06/23 03:32:33;;;;;;;5.80;4.60;;;;;;;13.77;100.00;100415.50;6130370;29;20047;-88
2022/06/23 03:35:42;;;;;;;6.60;5.32;;;;;;;13.79;100.00;100418.78;6126398;29;20050;-88
2022/06/23 03:42:25;;;;;;;8.50;4.97;;;;;;;13.81;100.00;100427.25;6123695;29;20059;-88
2022/06/23 03:45:39;;;;;;;5.85;4.72;;;;;;;13.77;100.00;100426.72;6118710;29;20052;-88
2022/06/23 03:48:50;;;;;;;7.15;5.38;;;;;;;13.81;100.00;100439.44;6121685;29;20455;-88
2022/06/23 03:51:59;;;;;;;;;;;;;;;13.81;100.00;100436.84;6134376;29;20633;-88
2022/06/23 03:55:39;;;;;;;7.05;4.55;;;;;;;13.80;100.00;100430.81;6135239;29;20061;-87
2022/06/23 03:58:50;;;;;;;7.73;5.03;;;;;;;13.80;100.00;100433.44;6133248;28;20058;-87
2022/06/23 04:02:19;;;;;;;6.35;5.00;;;;;;;13.83;100.00;100450.53;6133918;29;20055;-88
2022/06/23 04:05:44;;;;;;;6.95;5.30;;;;;;;13.86;100.00;100440.63;6129406;29;20043;-88
2022/06/23 04:08:57;;;;;;;6.72;4.88;;;;;;;13.89;100.00;100445.56;6118433;29;20497;-88
2022/06/23 04:12:14;;;;;;;6.90;5.18;;;;;;;13.97;100.00;100447.44;6124043;29;20031;-88
2022/06/23 04:15:32;;;;;;;6.10;5.03;;;;;;;14.04;100.00;100442.50;6123374;29;20039;-88
2022/06/23 04:18:39;;;;;;;8.77;5.50;;;;;;;14.08;100.00;100436.81;6120498;29;20054;-88
2022/06/23 04:21:45;;;;;;;6.55;4.97;;;;;;;14.11;100.00;100448.72;6125684;29;20629;-88
2022/06/23 04:24:53;;;;;;;6.70;4.97;;;;;;;14.21;100.00;100447.72;6122980;28;20050;-88
2022/06/23 04:27:59;;;;;;;7.72;5.25;;;;;;;14.28;100.00;100447.94;6126843;29;20785;-88
2022/06/23 04:31:05;;;;;;;7.88;5.30;;;;;;;14.35;100.00;100456.81;6125945;28;20035;-88
2022/06/23 04:34:27;;;;;;;7.22;5.50;;;;;;;14.40;100.00;100451.97;6128107;29;20043;-87
2022/06/23 04:37:45;;;;;;;7.15;4.95;;;;;;;14.46;100.00;100454.94;6132328;29;20514;-88
2022/06/23 04:41:22;;;;;;;9.05;4.72;;;;;;;14.48;100.00;100453.84;6133663;29;20110;-86
2022/06/23 04:44:31;;;;;;;8.00;5.55;;;;;;;14.49;100.00;100463.31;6126116;29;20615;-88
2022/06/23 04:47:33;;;;;;;6.72;5.30;;;;;;;14.52;100.00;100465.59;6136748;28;20054;-88
2022/06/23 04:50:47;;;;;;;7.55;5.57;;;;;;;14.56;100.00;100464.38;6134578;28;20039;-88
2022/06/23 04:54:04;;;;;;;8.20;5.30;;;;;;;14.62;100.00;100466.38;6133855;29;20052;-88
2022/06/23 04:57:17;;;;;;;7.38;5.55;;;;;;;14.66;100.00;100472.13;6141149;28;20047;-88
2022/06/23 05:00:30;;;;;;;6.53;5.28;;;;;;;14.71;100.00;100462.06;6135991;29;20054;-88
2022/06/23 05:03:50;;;;;;;7.68;4.78;;;;;;;14.75;100.00;100459.97;6126607;28;20056;-88
2022/06/23 05:06:57;;;;;;;7.97;5.50;;;;;;;14.81;100.00;100462.00;6131368;29;20209;-88
2022/06/23 05:10:06;;;;;;;7.57;5.60;;;;;;;14.87;100.00;100463.97;6127411;28;20054;-88
2022/06/23 05:13:45;;;;;;;7.03;5.30;;;;;;;14.93;100.00;100455.59;6132532;28;20055;-88
2022/06/23 05:16:53;;;;;;;8.45;5.55;;;;;;;15.03;100.00;100460.66;6126036;29;20554;-88
2022/06/23 05:19:57;;;;;;;9.63;5.80;;;;;;;15.07;100.00;100457.63;6131287;29;20050;-88
2022/06/23 05:23:02;;;;;;;8.07;5.32;;;;;;;15.14;100.00;100463.06;6130671;29;20493;-88
2022/06/23 05:26:12;;;;;;;7.10;5.13;;;;;;;15.20;100.00;100466.81;6130924;28;20059;-88
2022/06/23 05:29:27;;;;;;;7.75;5.65;;;;;;;15.23;100.00;100456.13;6128641;28;20039;-88
2022/06/23 05:32:47;;;;;;;9.05;5.75;;;;;;;15.28;100.00;100465.09;6130964;29;20055;-88
2022/06/23 05:35:57;;;;;;;6.55;5.65;;;;;;;15.33;100.00;100459.44;6122673;28;20445;-88
2022/06/23 05:39:26;;;;;;;;;;;;;;;15.40;100.00;100457.00;6127678;28;20051;-88
2022/06/23 05:42:30;;;;;;;11.50;5.90;;;;;;;15.48;100.00;100468.31;6156632;28;19929;-88
2022/06/23 05:45:44;;;;;;;6.38;5.10;;;;;;;15.52;100.00;100466.22;6147877;28;20066;-88
2022/06/23 05:49:15;;;;;;;9.35;5.68;;;;;;;15.62;100.00;100468.72;6159872;28;20050;-89
2022/06/23 05:52:24;;;;;;;8.30;5.40;;;;;;;15.71;100.00;100460.00;6137540;28;20130;-89
2022/06/23 05:55:45;;;;;;;10.43;5.63;;;;;;;15.81;100.00;100459.88;6150206;28;20047;-88
2022/06/23 05:58:55;;;;;;;6.60;4.70;;;;;;;15.89;100.00;100470.34;6151058;28;20181;-89
2022/06/23 06:02:10;;;;;;;7.38;5.43;;;;;;;16.03;100.00;100474.16;6126809;28;20050;-88
2022/06/23 06:05:28;;;;;;;9.80;5.45;;;;;;;16.09;100.00;100479.53;6130025;28;20056;-89
2022/06/23 06:09:35;;;;;;;8.82;5.18;;;;;;;16.15;100.00;100473.69;6153431;28;20046;-89
2022/06/23 06:12:16;;;;;;;9.85;5.60;;;;;;;16.23;100.00;100475.53;6140470;28;20183;-88
2022/06/23 06:15:32;;;;;;;7.05;5.20;;;;;;;16.32;100.00;100473.72;6154071;28;20087;-89
2022/06/23 06:18:38;;;;;;;7.95;4.57;;;;;;;16.38;100.00;100469.69;6147679;28;20066;-89
2022/06/23 06:21:39;;;;;;;8.75;5.00;;;;;;;16.44;100.00;100471.63;6135309;28;20047;-89
2022/06/23 06:24:46;;;;;;;8.35;4.75;;;;;;;16.51;100.00;100464.78;6121106;29;20133;-89
2022/06/23 06:27:48;;;;;;;9.50;5.40;;;;;;;16.59;100.00;100475.25;6120390;28;20439;-88
2022/06/23 06:31:11;;;;;;;6.80;4.32;;;;;;;16.70;100.00;100472.34;6130176;28;20070;-89
2022/06/23 06:34:36;;;;;;;6.45;4.07;;;;;;;16.81;100.00;100465.19;6124148;29;20564;-88
2022/06/23 06:37:42;;;;;;;5.72;4.28;;;;;;;16.92;100.00;100470.91;6119607;28;20512;-89
2022/06/23 06:40:47;;;;;;;6.53;4.13;;;;;;;17.01;100.00;100472.50;6136864;28;20051;-89
2022/06/23 06:43:50;;;;;;;7.18;4.00;;;;;;;17.15;100.00;100475.47;6117052;29;20228;-88
2022/06/23 06:46:53;;;;;;;4.72;4.15;;;;;;;17.23;100.00;100475.44;6126348;29;20074;-88
2022/06/23 06:50:00;;;;;;;9.02;4.20;;;;;;;17.32;100.00;100471.03;6119641;29;20067;-89
2022/06/23 06:53:13;;;;;;;8.07;4.03;;;;;;;17.40;100.00;100478.84;6116284;29;20058;-89
2022/06/23 06:56:15;;;;;;;7.78;4.68;;;;;;;17.47;100.00;100477.22;6123656;28;20106;-88
2022/06/23 06:59:24;;;;;;;5.40;3.80;;;;;;;17.59;100.00;100480.28;6128900;29;20047;-89
2022/06/23 07:02:40;;;;;;;4.78;4.30;;;;;;;17.68;100.00;100475.84;6132818;29;20167;-89
2022/06/23 07:05:45;;;;;;;6.53;4.25;;;;;;;17.78;100.00;100471.22;6125704;28;20043;-89
2022/06/23 07:08:56;;;;;;;5.75;3.55;;;;;;;17.85;100.00;100470.41;6132638;29;20414;-88
2022/06/23 07:12:13;;;;;;;4.35;3.50;;;;;;;17.98;100.00;100466.41;6117134;28;20051;-89
2022/06/23 07:15:21;;;;;;;4.18;3.78;;;;;;;18.11;100.00;100465.84;6132524;29;20050;-89
2022/06/23 07:18:30;;;;;;;3.88;3.50;;;;;;;18.24;99.63;100472.19;6126814;28;20066;-89
2022/06/23 07:21:49;;;;;;;6.13;3.38;;;;;;;18.32;99.62;100481.78;6121955;29;20039;-88
2022/06/23 07:25:39;;;;;;;5.45;3.67;;;;;;;18.41;98.62;100485.16;6119185;28;20046;-88
2022/06/23 07:28:48;;;;;;;6.75;3.35;;;;;;;18.51;97.89;100480.53;6131063;29;20075;-89
2022/06/23 07:32:02;;;;;;;4.32;3.50;;;;;;;18.61;96.68;100491.63;6119739;29;20524;-88
2022/06/23 07:35:22;;;;;;;5.63;3.25;;;;;;;18.71;96.25;100484.31;6114268;29;20051;-88
2022/06/23 07:38:39;;;;;;;5.25;3.53;;;;;;;18.81;95.33;100473.63;6132631;29;20141;-88
2022/06/23 07:41:50;;;;;;;4.53;3.50;;;;;;;18.92;95.48;100472.38;6123426;29;20055;-88
2022/06/23 07:45:02;;;;;;;8.05;3.40;;;;;;;19.01;94.54;100484.44;6131146;29;20047;-89
2022/06/23 07:48:04;;;;;;;5.25;3.67;;;;;;;19.17;93.39;100487.91;6127809;29;20058;-88
2022/06/23 07:51:09;;;;;;;4.38;3.85;;;;;;;19.23;92.25;100463.56;6130339;29;20047;-89
2022/06/23 07:54:18;;;;;;;5.07;3.60;;;;;;;19.35;91.30;100464.75;6126732;28;20060;-89
2022/06/23 07:57:20;;;;;;;5.53;3.13;;;;;;;19.46;91.95;100456.44;6129161;29;20059;-89
2022/06/23 08:00:30;;;;;;;6.30;3.50;;;;;;;19.55;91.51;100468.50;6111645;29;20073;-88
2022/06/23 08:03:52;;;;;;;7.07;3.22;;;;;;;19.65;91.13;100462.13;6120763;29;20048;-89
2022/06/23 08:06:57;;;;;;;4.05;3.10;;;;;;;19.79;88.83;100471.84;6116111;29;20043;-88
2022/06/23 08:10:05;;;;;;;5.85;3.38;;;;;;;19.91;87.89;100465.13;6123694;29;20055;-89
2022/06/23 08:13:27;;;;;;;4.07;3.03;;;;;;;20.05;85.26;100465.28;6120962;28;20040;-89
2022/06/23 08:20:00;;;;;;;4.15;3.00;;;;;;;20.39;85.93;100478.59;6125416;29;20050;-89
2022/06/23 08:23:03;;;;;;;3.22;2.92;;;;;;;20.47;84.65;100477.69;6118602;29;20044;-89
2022/06/23 08:26:08;;;;;;;6.15;3.00;;;;;;;20.57;82.49;100475.59;6119509;29;20046;-88
2022/06/23 08:29:13;;;;;;;6.28;3.25;;;;;;;20.68;83.02;100471.63;6122939;29;20054;-88
2022/06/23 08:32:15;;;;;;;4.00;3.10;;;;;;;20.77;81.37;100465.25;6121979;29;20043;-89
2022/06/23 08:35:48;;;;;;;6.65;3.15;;;;;;;20.84;82.19;100463.50;6132279;28;20070;-89
2022/06/23 08:39:09;;;;;;;3.95;2.90;;;;;;;21.02;79.13;100467.47;6118030;29;20387;-89
2022/06/23 08:42:44;;;;;;;3.78;3.08;;;;;;;21.18;79.15;100467.16;6125105;28;20236;-88
2022/06/23 08:45:55;;;;;;;6.38;3.20;;;;;;;21.36;77.97;100460.59;6115493;29;20043;-89
2022/06/23 08:49:37;;;;;;;2.83;2.63;;;;;;;21.49;78.21;100447.56;6115350;29;20052;-89
2022/06/23 08:52:49;;;;;;;4.15;2.83;;;;;;;21.55;75.58;100448.59;6120610;29;20068;-89
2022/06/23 08:56:05;;;;;;;6.70;2.97;;;;;;;21.68;76.02;100451.28;6122975;29;20044;-89
2022/06/23 08:59:39;;;;;;;8.30;2.90;;;;;;;21.83;74.02;100451.13;6121997;29;20137;-89
2022/06/23 09:02:54;;;;;;;5.47;3.15;;;;;;;21.92;73.21;100455.22;6126485;28;20067;-89
2022/06/23 09:06:09;;;;;;;7.30;3.38;;;;;;;22.05;74.53;100457.09;6125523;29;20782;-89
2022/06/23 09:09:48;;;;;;;6.43;3.22;;;;;;;22.13;73.27;100452.44;6125542;29;20043;-88
2022/06/23 09:13:02;;;;;;;4.60;2.92;;;;;;;22.30;75.16;100454.75;6120940;29;20039;-88
2022/06/23 09:16:32;;;;;;;4.35;2.90;;;;;;;22.52;73.09;100453.56;6126815;29;20119;-89
2022/06/23 09:19:53;;;;;;;3.33;2.90;;;;;;;22.65;69.29;100455.41;6136421;28;20824;-89
2022/06/23 09:23:08;;;;;;;3.50;2.83;;;;;;;22.73;69.91;100449.09;6136285;29;20043;-89
2022/06/23 09:26:35;;;;;;;7.82;3.28;;;;;;;22.78;68.42;100441.38;6126838;28;20047;-89
2022/06/23 09:30:02;;;;;;;6.80;3.10;;;;;;;22.89;69.81;100451.34;6122688;29;20062;-88
2022/06/23 09:33:42;;;;;;;5.63;2.88;;;;;;;22.99;69.85;100441.22;6122583;29;20058;-88
2022/06/23 09:37:12;;;;;;;3.55;2.50;;;;;;;23.18;65.80;100442.22;6127856;29;20085;-87
2022/06/23 09:40:42;;;;;;;2.78;2.50;;;;;;;23.51;66.44;100438.66;6133748;29;20062;-87
2022/06/23 09:44:15;;;;;;;5.10;2.67;;;;;;;23.70;62.90;100436.97;6119713;29;20051;-87
2022/06/23 09:47:48;;;;;;;4.07;2.88;;;;;;;23.78;63.94;100435.97;6135697;28;20089;-87
2022/06/23 09:50:56;;;;;;;3.90;2.78;;;;;;;23.89;62.28;100429.19;6130496;28;20121;-87
2022/06/23 09:54:36;;;;;;;4.28;3.00;;;;;;;23.96;60.13;100416.75;6139207;28;20497;-87
2022/06/23 09:57:56;;;;;;;;;;;;;;;24.10;62.25;100423.59;6125462;29;20051;-87
2022/06/23 10:01:17;;;;;;;3.22;2.75;;;;;;;24.29;59.77;100429.75;6128499;29;20024;-87
2022/06/23 10:04:19;;;;;;;3.80;2.65;;;;;;;24.37;57.96;100428.69;6125146;29;20043;-87
2022/06/23 10:07:31;;;;;;;6.85;3.00;;;;;;;24.54;58.18;100421.06;6126686;28;20500;-87
2022/06/23 10:11:13;;;;;;;4.30;2.78;;;;;;;24.65;57.55;100415.09;6126010;29;20182;-88
2022/06/23 10:14:21;;;;;;;11.02;3.95;;;;;;;24.69;55.05;100421.53;6157161;28;20058;-87
2022/06/23 10:17:51;;;;;;;4.93;2.50;;;;;;;24.84;56.11;100426.50;6139676;28;20061;-87
2022/06/23 10:21:17;;;;;;;5.55;2.47;;;;;;;25.05;53.72;100420.81;6156383;28;20061;-88
2022/06/23 10:24:35;;;;;;;6.50;2.40;;;;;;;25.24;52.08;100405.78;6157353;28;20089;-88
2022/06/23 10:27:51;;;;;;;5.25;2.50;;;;;;;25.35;51.00;100409.53;6158403;28;20190;-88
2022/06/23 10:31:13;;;;;;;5.05;2.60;;;;;;;25.39;49.57;100405.41;6157836;28;20066;-87
2022/06/23 10:34:49;;;;;;;4.30;2.40;;;;;;;25.60;49.62;100408.63;6159259;28;20047;-88
2022/06/23 10:38:21;;;;;;;4.78;2.13;;;;;;;25.72;48.35;100401.53;6137965;28;20042;-87
2022/06/23 10:41:46;;;;;;;4.50;2.67;;;;;;;25.88;50.83;100395.63;6091382;29;20067;-88
2022/06/23 10:45:07;;;;;;;6.57;3.00;;;;;;;26.00;51.05;100398.31;6090430;29;20434;-88
2022/06/23 10:48:33;;;;;;;2.63;2.28;;;;;;;26.12;46.16;100403.66;6091069;29;20036;-88
2022/06/23 10:52:00;;;;;;;2.20;2.00;;;;;;;26.23;45.32;100389.59;6083097;29;20185;-89
2022/06/23 10:55:26;;;;;;;5.43;2.35;;;;;;;26.40;46.78;100389.75;6066529;29;20229;-90
2022/06/23 10:58:57;;;;;;;4.00;2.40;;;;;;;26.54;46.29;100391.19;6087788;29;20072;-91
2022/06/23 11:02:17;;;;;;;7.28;2.30;;;;;;;26.61;44.12;100385.75;6077137;29;20056;-91
2022/06/23 11:05:43;;;;;;;2.90;2.70;;;;;;;26.65;44.35;100381.59;6078065;29;20059;-89
2022/06/23 11:09:23;;;;;;;3.53;2.30;;;;;;;26.79;43.03;100382.19;6084319;29;20056;-89
2022/06/23 11:12:53;;;;;;;4.18;2.50;;;;;;;26.76;44.38;100372.81;6081349;29;20099;-91
2022/06/23 11:16:30;;;;;;;;;;;;;;;26.87;43.75;100363.22;6077052;29;20237;-95
2022/06/23 11:20:13;;;;;;;6.45;2.63;;;;;;;27.01;42.97;100363.78;6124493;29;20028;-94
2022/06/23 11:23:37;;;;;;;8.15;2.40;;;;;;;27.20;42.35;100359.94;6088812;29;20063;-95
2022/06/23 11:26:58;;;;;;;2.50;2.30;;;;;;;27.27;42.94;100352.66;6077977;29;20079;-94
2022/06/23 11:30:15;;;;;;;3.53;2.55;;;;;;;27.39;43.70;100349.97;6050188;29;20450;-94
2022/06/23 11:33:33;;;;;;;2.72;2.47;;;;;;;27.56;43.63;100347.34;6080845;29;20127;-94
2022/06/23 11:37:03;;;;;;;3.10;2.28;;;;;;;27.73;40.85;100336.75;6086500;29;20059;-94
2022/06/23 11:40:29;;;;;;;2.20;2.10;;;;;;;27.85;39.98;100326.88;6084110;29;20380;-94
2022/06/23 11:43:41;;;;;;;3.97;2.10;;;;;;;28.12;40.56;100326.22;6079770;29;20615;-95
2022/06/23 11:47:00;;;;;;;3.80;2.30;;;;;;;28.27;37.74;100323.00;6085493;29;20812;-94
2022/06/23 11:50:23;;;;;;;2.17;2.00;;;;;;;28.41;38.70;100321.63;6066036;29;20051;-95
2022/06/23 11:53:42;;;;;;;3.40;1.80;;;;;;;28.61;37.77;100318.47;6078858;29;20251;-95
2022/06/23 11:56:52;;;;;;;2.30;2.10;;;;;;;28.83;36.83;100320.34;6082186;29;20087;-94
2022/06/23 12:00:17;;;;;;;3.45;2.10;;;;;;;29.04;36.38;100322.19;6072919;29;20055;-95
2022/06/23 12:03:54;;;;;;;2.13;1.92;;;;;;;29.40;37.99;100311.97;6123928;29;20055;-94
2022/06/23 12:07:21;;;;;;;4.72;2.20;;;;;;;29.65;35.47;100310.59;6120862;29;20047;-94
2022/06/23 12:10:27;;;;;;;2.83;2.10;;;;;;;29.86;39.00;100308.94;6124158;29;20047;-93
2022/06/23 12:13:32;;;;;;;4.25;2.15;;;;;;;30.13;35.47;100312.34;6144981;28;20047;-93
2022/06/23 12:16:48;;;;;;;3.80;2.38;;;;;;;30.31;34.27;100302.34;6123659;29;20039;-92
2022/06/23 12:20:27;;;;;;;3.92;2.60;;;;;;;30.43;34.37;100297.59;6118093;29;20050;-93
2022/06/23 12:23:32;;;;;;;;;;;;;;;30.59;36.25;100295.84;6130043;29;20040;-92
2022/06/23 12:26:47;;;;;;;2.28;2.08;;;;;;;30.75;33.75;100286.81;6124814;28;19942;-93
2022/06/23 12:30:08;;;;;;;3.08;2.58;;;;;;;30.94;33.47;100292.53;6117435;29;20043;-93
2022/06/23 12:33:19;;;;;;;2.45;2.20;;;;;;;31.11;32.97;100287.78;6126844;29;20039;-93
2022/06/23 12:36:37;;;;;;;2.60;2.40;;;;;;;31.30;33.15;100290.75;6126924;29;21197;-93
2022/06/23 12:39:44;;;;;;;3.33;2.20;;;;;;;31.53;33.19;100281.44;6129974;28;20047;-93
2022/06/23 12:43:06;;;;;;;4.80;2.28;;;;;;;31.64;31.38;100276.91;6121160;29;20047;-94
2022/06/23 12:46:16;;;;;;;2.47;2.20;;;;;;;31.76;33.25;100277.44;6126976;29;20074;-93
2022/06/23 12:49:40;;;;;;;3.33;2.10;;;;;;;31.96;32.27;100275.84;6124899;29;20054;-93
2022/06/23 12:53:14;;;;;;;3.15;2.00;;;;;;;32.17;32.12;100269.38;6126462;29;20051;-93
2022/06/23 12:56:37;;;;;;;3.35;2.60;;;;;;;32.33;29.18;100272.03;6129886;29;20153;-93
2022/06/23 12:59:47;;;;;;;2.85;2.22;;;;;;;32.41;29.48;100263.41;6144877;28;20051;-93
2022/06/23 13:02:59;;;;;;;2.55;2.08;;;;;;;32.45;29.65;100263.66;6126594;28;20047;-93
2022/06/23 13:06:19;;;;;;;2.05;1.88;;;;;;;32.58;30.17;100257.75;6123529;29;20059;-92
2022/06/23 13:09:44;;;;;;;2.95;2.05;;;;;;;32.67;28.93;100248.09;6123593;28;20048;-91
2022/06/23 13:13:25;;;;;;;2.33;2.10;;;;;;;32.79;30.52;100247.72;6130670;29;20052;-92
2022/06/23 13:16:37;;;;;;;3.42;2.20;;;;;;;32.94;28.24;100249.53;6122515;29;20047;-92
2022/06/23 13:19:50;;;;;;;2.30;2.10;;;;;;;33.10;31.18;100237.66;6122626;29;20620;-92
2022/06/23 13:23:31;;;;;;;10.57;2.08;;;;;;;33.19;28.19;100238.69;6132874;29;20048;-92
2022/06/23 13:27:03;;;;;;;1.95;1.75;;;;;;;33.23;28.40;100236.22;6119011;29;20047;-92
2022/06/23 13:30:12;;;;;;;2.25;1.98;;;;;;;33.49;29.68;100230.66;6131736;29;20043;-93
2022/06/23 13:33:36;;;;;;;2.93;1.80;;;;;;;33.57;28.23;100225.53;6124124;29;20040;-93
2022/06/23 13:36:45;;;;;;;2.25;1.90;;;;;;;33.71;28.88;100225.66;6124315;29;20776;-93
2022/06/23 13:39:55;;;;;;;;;;;;;;;33.76;28.07;100225.59;6125612;28;20043;-92
2022/06/23 13:43:23;;;;;;;2.55;2.13;;;;;;;33.85;29.62;100225.81;6126209;28;19943;-92
2022/06/23 13:46:54;;;;;;;2.30;2.03;;;;;;;34.00;29.27;100222.16;6133079;29;20644;-92
2022/06/23 13:50:22;;;;;;;2.10;1.90;;;;;;;34.15;29.73;100219.34;6115266;28;20592;-93
2022/06/23 13:53:47;;;;;;;4.28;2.30;;;;;;;34.25;28.98;100223.78;6135035;29;20142;-92
2022/06/23 13:57:13;;;;;;;3.38;2.10;;;;;;;34.33;28.80;100219.66;6130255;29;20163;-92
2022/06/23 14:00:39;;;;;;;2.95;2.35;;;;;;;34.43;29.31;100216.84;6128796;29;20553;-92
2022/06/23 14:04:04;;;;;;;4.45;2.03;;;;;;;34.60;28.09;100211.03;6120679;29;20588;-93
2022/06/23 14:07:27;;;;;;;2.75;2.35;;;;;;;34.70;28.45;100213.56;6116369;29;20058;-92
2022/06/23 14:10:56;;;;;;;2.55;2.30;;;;;;;34.73;27.55;100210.28;6131780;29;20036;-91
2022/06/23 14:14:35;;;;;;;4.70;2.07;;;;;;;34.73;26.44;100203.03;6137527;29;20055;-91
2022/06/23 14:18:00;;;;;;;2.40;2.20;;;;;;;34.78;28.53;100193.28;6129231;29;20129;-90
2022/06/23 14:21:36;;;;;;;2.70;2.13;;;;;;;34.81;28.00;100192.69;6122339;29;20055;-90
2022/06/23 14:25:00;;;;;;;2.25;2.13;;;;;;;34.94;26.30;100191.97;6096766;29;20055;-91
2022/06/23 14:28:21;;;;;;;2.58;2.10;;;;;;;35.05;28.80;100184.53;6115432;29;20576;-91
2022/06/23 14:31:48;;;;;;;4.20;2.30;;;;;;;35.16;26.74;100178.75;6124072;29;20047;-91
2022/06/23 14:35:22;;;;;;;4.88;1.98;;;;;;;35.42;28.13;100182.88;6128167;29;20051;-91
2022/06/23 14:38:49;;;;;;;3.67;2.30;;;;;;;35.42;26.87;100167.53;6124519;29;20055;-90
2022/06/23 14:42:05;;;;;;;3.13;2.50;;;;;;;35.51;28.00;100178.44;6128359;29;20106;-91
2022/06/23 14:45:44;;;;;;;2.60;2.30;;;;;;;35.74;25.86;100179.38;6130174;29;20500;-91
2022/06/23 14:49:14;;;;;;;2.95;2.20;;;;;;;35.79;27.29;100168.50;6132313;29;20527;-92
2022/06/23 14:53:07;;;;;;;4.20;2.33;;;;;;;35.91;29.30;100171.50;6119507;29;20175;-92
2022/06/23 14:56:32;;;;;;;2.65;2.45;;;;;;;35.98;27.40;100166.50;6102448;29;20059;-91
2022/06/23 14:59:52;;;;;;;2.90;2.33;;;;;;;36.03;26.98;100165.63;6079349;29;20048;-91
2022/06/23 15:03:01;;;;;;;3.22;2.00;;;;;;;36.00;26.26;100158.13;6105059;29;20051;-90
2022/06/23 15:06:06;;;;;;;3.28;2.13;;;;;;;35.88;27.50;100150.56;6086657;29;20105;-92
2022/06/23 15:09:35;;;;;;;3.08;2.35;;;;;;;36.00;26.11;100153.53;6101406;29;20040;-91
2022/06/23 15:12:53;;;;;;;;;;;;;;;36.11;27.26;100143.38;6104607;29;20505;-89
2022/06/23 15:16:07;;;;;;;3.70;2.17;;;;;;;36.20;27.56;100144.28;6111590;29;20530;-91
2022/06/23 15:19:31;;;;;;;3.28;2.35;;;;;;;36.32;26.47;100141.03;6088581;29;20437;-91
2022/06/23 15:26:03;;;;;;;4.13;2.10;;;;;;;36.29;25.33;100141.63;6097827;29;20529;-91
2022/06/23 15:29:26;;;;;;;3.88;2.03;;;;;;;36.38;26.58;100136.34;6092447;29;20123;-90
2022/06/23 15:32:42;;;;;;;3.22;2.20;;;;;;;36.47;26.69;100136.41;6122976;29;20190;-90